sensor_id;sensor_type;location;lat;lon;timestamp;pressure;altitude;pressure_sealevel;temperature;humidity
67015;BME280;1033;52.560;13.374;2024-01-15T00:00:00;98773.94;;;2.24;100.00
67015;BME280;1033;52.560;13.374;2024-01-15T00:02:36;98769.84;;;2.28;100.00
67015;BME280;1033;52.560;13.374;2024-01-15T00:05:05;98759.16;;;2.28;100.00
67015;BME280;1033;52.560;13.374;2024-01-15T00:07:35;98765.97;;;2.30;100.00
67015;BME280;1033;52.560;13.374;2024-01-15T00:10:04;98755.44;;;2.15;100.00
67015;BME280;1033;52.560;13.374;2024-01-15T00:12:33;98753.63;;;2.23;100.00
67015;BME280;1033;52.560;13.374;2024-01-15T00:15:04;98746.66;;;2.22;100.00
67015;BME280;1033;52.560;13.374;2024-01-15T00:17:33;98741.69;;;2.18;100.00
67015;BME280;1033;52.560;13.374;2024-01-15T00:20:02;98731.25;;;2.24;100.00
67015;BME280;1033;52.560;13.374;2024-01-15T00:22:31;98729.19;;;2.12;100.00
67015;BME280;1033;52.560;13.374;2024-01-15T00:25:03;98730.81;;;2.13;100.00
67015;BME280;1033;52.560;13.374;2024-01-15T00:27:31;98724.88;;;2.11;100.00
67015;BME280;1033;52.560;13.374;2024-01-15T00:30:00;98721.78;;;2.14;100.00
67015;BME280;1033;52.560;13.374;2024-01-15T00:32:30;98717.69;;;2.18;100.00
67015;BME280;1033;52.560;13.374;2024-01-15T00:34:58;98710.31;;;2.21;100.00
67015;BME280;1033;52.560;13.374;2024-01-15T00:37:27;98699.00;;;2.12;100.00
67015;BME280;1033;52.560;13.374;2024-01-15T00:39:55;98699.41;;;2.15;100.00
67015;BME280;1033;52.560;13.374;2024-01-15T00:42:24;98703.75;;;2.16;100.00
67015;BME280;1033;52.560;13.374;2024-01-15T00:44:53;98701.28;;;2.22;100.00
67015;BME280;1033;52.560;13.374;2024-01-15T00:47:22;98698.00;;;2.19;100.00
67015;BME280;1033;52.560;13.374;2024-01-15T00:49:52;98695.50;;;2.11;100.00
67015;BME280;1033;52.560;13.374;2024-01-15T00:52:21;98691.59;;;2.07;100.00
67015;BME280;1033;52.560;13.374;2024-01-15T00:54:49;98686.50;;;2.12;100.00
67015;BME280;1033;52.560;13.374;2024-01-15T00:57:18;98678.94;;;2.23;100.00
67015;BME280;1033;52.560;13.374;2024-01-15T00:59:47;98696.38;;;2.25;100.00
67015;BME280;1033;52.560;13.374;2024-01-15T01:02:16;98683.59;;;2.07;100.00
67015;BME280;1033;52.560;13.374;2024-01-15T01:04:44;98684.81;;;2.05;100.00
67015;BME280;1033;52.560;13.374;2024-01-15T01:07:14;98677.22;;;2.02;100.00
67015;BME280;1033;52.560;13.374;2024-01-15T01:09:43;98675.53;;;1.94;100.00
67015;BME280;1033;52.560;13.374;2024-01-15T01:12:12;98676.97;;;1.84;100.00
67015;BME280;1033;52.560;13.374;2024-01-15T01:14:41;98673.41;;;1.70;100.00
67015;BME280;1033;52.560;13.374;2024-01-15T01:17:09;98685.50;;;1.66;100.00
67015;BME280;1033;52.560;13.374;2024-01-15T01:19:38;98680.13;;;1.53;100.00
67015;BME280;1033;52.560;13.374;2024-01-15T01:22:06;98681.78;;;1.54;100.00
67015;BME280;1033;52.560;13.374;2024-01-15T01:24:36;98680.56;;;1.63;100.00
67015;BME280;1033;52.560;13.374;2024-01-15T01:27:05;98670.69;;;1.57;100.00
67015;BME280;1033;52.560;13.374;2024-01-15T01:29:33;98676.06;;;1.70;100.00
67015;BME280;1033;52.560;13.374;2024-01-15T01:32:01;98669.72;;;1.64;100.00
67015;BME280;1033;52.560;13.374;2024-01-15T01:34:32;98673.19;;;1.65;100.00
67015;BME280;1033;52.560;13.374;2024-01-15T01:37:01;98668.06;;;1.70;100.00
67015;BME280;1033;52.560;13.374;2024-01-15T01:39:29;98666.25;;;1.70;100.00
67015;BME280;1033;52.560;13.374;2024-01-15T01:41:59;98657.22;;;1.71;100.00
67015;BME280;1033;52.560;13.374;2024-01-15T01:44:27;98676.94;;;1.77;100.00
67015;BME280;1033;52.560;13.374;2024-01-15T01:46:57;98662.16;;;1.68;100.00
67015;BME280;1033;52.560;13.374;2024-01-15T01:49:27;98673.81;;;1.67;100.00
67015;BME280;1033;52.560;13.374;2024-01-15T01:51:58;98670.38;;;1.73;100.00
67015;BME280;1033;52.560;13.374;2024-01-15T01:54:31;98663.38;;;1.72;100.00
67015;BME280;1033;52.560;13.374;2024-01-15T01:57:03;98662.69;;;1.57;100.00
67015;BME280;1033;52.560;13.374;2024-01-15T01:59:34;98668.03;;;1.57;100.00
67015;BME280;1033;52.560;13.374;2024-01-15T02:02:05;98664.78;;;1.61;100.00
67015;BME280;1033;52.560;13.374;2024-01-15T02:04:34;98659.84;;;1.58;100.00
67015;BME280;1033;52.560;13.374;2024-01-15T02:07:04;98654.50;;;1.58;100.00
67015;BME280;1033;52.560;13.374;2024-01-15T02:09:33;98640.94;;;1.47;100.00
67015;BME280;1033;52.560;13.374;2024-01-15T02:12:03;98641.56;;;1.49;100.00
67015;BME280;1033;52.560;13.374;2024-01-15T02:14:32;98637.84;;;1.43;100.00
67015;BME280;1033;52.560;13.374;2024-01-15T02:17:01;98648.88;;;1.34;100.00
67015;BME280;1033;52.560;13.374;2024-01-15T02:19:29;98641.06;;;1.32;100.00
67015;BME280;1033;52.560;13.374;2024-01-15T02:21:57;98655.44;;;1.38;100.00
67015;BME280;1033;52.560;13.374;2024-01-15T02:24:27;98645.41;;;1.40;100.00
67015;BME280;1033;52.560;13.374;2024-01-15T02:26:56;98649.78;;;1.54;100.00
67015;BME280;1033;52.560;13.374;2024-01-15T02:29:24;98648.34;;;1.58;100.00
67015;BME280;1033;52.560;13.374;2024-01-15T02:31:53;98644.09;;;1.70;100.00
67015;BME280;1033;52.560;13.374;2024-01-15T02:34:22;98637.94;;;1.63;100.00
67015;BME280;1033;52.560;13.374;2024-01-15T02:36:50;98646.94;;;1.62;100.00
67015;BME280;1033;52.560;13.374;2024-01-15T02:39:19;98638.09;;;1.55;100.00
67015;BME280;1033;52.560;13.374;2024-01-15T02:41:49;98629.06;;;1.56;100.00
67015;BME280;1033;52.560;13.374;2024-01-15T02:44:17;98628.44;;;1.47;100.00
67015;BME280;1033;52.560;13.374;2024-01-15T02:46:46;98629.06;;;1.56;100.00
67015;BME280;1033;52.560;13.374;2024-01-15T02:49:14;98630.53;;;1.58;100.00
67015;BME280;1033;52.560;13.374;2024-01-15T02:51:43;98640.97;;;1.60;100.00
67015;BME280;1033;52.560;13.374;2024-01-15T02:54:12;98639.81;;;1.69;100.00
67015;BME280;1033;52.560;13.374;2024-01-15T02:56:41;98636.31;;;1.75;100.00
67015;BME280;1033;52.560;13.374;2024-01-15T02:59:11;98629.34;;;1.74;100.00
67015;BME280;1033;52.560;13.374;2024-01-15T03:01:39;98622.78;;;1.77;100.00
67015;BME280;1033;52.560;13.374;2024-01-15T03:04:08;98622.78;;;1.77;100.00
67015;BME280;1033;52.560;13.374;2024-01-15T03:06:37;98616.44;;;1.78;100.00
67015;BME280;1033;52.560;13.374;2024-01-15T03:09:05;98618.50;;;1.82;100.00
67015;BME280;1033;52.560;13.374;2024-01-15T03:11:37;98616.63;;;1.76;100.00
67015;BME280;1033;52.560;13.374;2024-01-15T03:14:06;98616.44;;;1.84;100.00
67015;BME280;1033;52.560;13.374;2024-01-15T03:16:36;98616.66;;;1.83;100.00
67015;BME280;1033;52.560;13.374;2024-01-15T03:19:06;98606.41;;;1.86;100.00
67015;BME280;1033;52.560;13.374;2024-01-15T03:21:35;98611.94;;;1.91;100.00
67015;BME280;1033;52.560;13.374;2024-01-15T03:24:04;98608.06;;;2.00;100.00
67015;BME280;1033;52.560;13.374;2024-01-15T03:26:32;98615.84;;;1.95;100.00
67015;BME280;1033;52.560;13.374;2024-01-15T03:29:01;98605.97;;;1.89;100.00
67015;BME280;1033;52.560;13.374;2024-01-15T03:31:29;98614.22;;;1.94;100.00
67015;BME280;1033;52.560;13.374;2024-01-15T03:34:00;98607.00;;;1.82;100.00
67015;BME280;1033;52.560;13.374;2024-01-15T03:36:28;98595.31;;;1.89;100.00
67015;BME280;1033;52.560;13.374;2024-01-15T03:39:00;98598.63;;;1.91;100.00
67015;BME280;1033;52.560;13.374;2024-01-15T03:41:29;98603.13;;;1.91;100.00
67015;BME280;1033;52.560;13.374;2024-01-15T03:43:57;98593.69;;;1.82;100.00
67015;BME280;1033;52.560;13.374;2024-01-15T03:46:29;98595.31;;;1.83;100.00
67015;BME280;1033;52.560;13.374;2024-01-15T03:49:05;98592.06;;;1.87;100.00
67015;BME280;1033;52.560;13.374;2024-01-15T03:51:34;98589.38;;;1.87;100.00
67015;BME280;1033;52.560;13.374;2024-01-15T03:54:03;98587.09;;;1.84;100.00
67015;BME280;1033;52.560;13.374;2024-01-15T03:56:31;98582.63;;;1.91;100.00
67015;BME280;1033;52.560;13.374;2024-01-15T03:59:00;98571.31;;;1.83;100.00
67015;BME280;1033;52.560;13.374;2024-01-15T04:01:28;98572.75;;;1.85;100.00
67015;BME280;1033;52.560;13.374;2024-01-15T04:04:01;98577.50;;;1.83;100.00
67015;BME280;1033;52.560;13.374;2024-01-15T04:06:31;98559.66;;;1.84;100.00
67015;BME280;1033;52.560;13.374;2024-01-15T04:09:00;98570.31;;;1.90;100.00
67015;BME280;1033;52.560;13.374;2024-01-15T04:11:29;98562.50;;;1.82;100.00
67015;BME280;1033;52.560;13.374;2024-01-15T04:13:58;98554.31;;;1.84;100.00
67015;BME280;1033;52.560;13.374;2024-01-15T04:16:26;98549.38;;;1.87;100.00
67015;BME280;1033;52.560;13.374;2024-01-15T04:18:54;98544.84;;;1.81;100.00
67015;BME280;1033;52.560;13.374;2024-01-15T04:21:23;98548.16;;;1.83;100.00
67015;BME280;1033;52.560;13.374;2024-01-15T04:23:53;98559.84;;;1.89;100.00
67015;BME280;1033;52.560;13.374;2024-01-15T04:26:21;98552.66;;;1.89;100.00
67015;BME280;1033;52.560;13.374;2024-01-15T04:28:50;98560.25;;;1.92;100.00
67015;BME280;1033;52.560;13.374;2024-01-15T04:31:23;98571.53;;;1.94;100.00
67015;BME280;1033;52.560;13.374;2024-01-15T04:33:52;98565.97;;;1.89;100.00
67015;BME280;1033;52.560;13.374;2024-01-15T04:36:21;98564.16;;;1.96;100.00
67015;BME280;1033;52.560;13.374;2024-01-15T04:38:50;98562.13;;;1.98;100.00
67015;BME280;1033;52.560;13.374;2024-01-15T04:41:20;98548.59;;;1.93;100.00
67015;BME280;1033;52.560;13.374;2024-01-15T04:43:48;98545.69;;;1.95;100.00
67015;BME280;1033;52.560;13.374;2024-01-15T04:46:17;98544.06;;;2.00;100.00
67015;BME280;1033;52.560;13.374;2024-01-15T04:48:47;98538.72;;;2.00;100.00
67015;BME280;1033;52.560;13.374;2024-01-15T04:51:15;98543.84;;;1.95;100.00
67015;BME280;1033;52.560;13.374;2024-01-15T04:53:44;98550.19;;;1.94;100.00
67015;BME280;1033;52.560;13.374;2024-01-15T04:56:13;98536.66;;;2.09;100.00
67015;BME280;1033;52.560;13.374;2024-01-15T04:58:43;98533.38;;;2.00;100.00
67015;BME280;1033;52.560;13.374;2024-01-15T05:01:11;98527.63;;;2.03;100.00
67015;BME280;1033;52.560;13.374;2024-01-15T05:03:40;98534.22;;;2.07;100.00
67015;BME280;1033;52.560;13.374;2024-01-15T05:06:09;98527.84;;;2.08;100.00
67015;BME280;1033;52.560;13.374;2024-01-15T05:08:37;98532.16;;;2.09;100.00
67015;BME280;1033;52.560;13.374;2024-01-15T05:11:06;98541.81;;;2.10;100.00
67015;BME280;1033;52.560;13.374;2024-01-15T05:13:34;98531.53;;;2.14;100.00
67015;BME280;1033;52.560;13.374;2024-01-15T05:16:05;98539.13;;;2.10;99.68
67015;BME280;1033;52.560;13.374;2024-01-15T05:18:33;98537.09;;;2.12;100.00
67015;BME280;1033;52.560;13.374;2024-01-15T05:21:05;98525.41;;;2.07;100.00
67015;BME280;1033;52.560;13.374;2024-01-15T05:23:34;98528.47;;;2.10;100.00
67015;BME280;1033;52.560;13.374;2024-01-15T05:26:03;98533.59;;;2.12;100.00
67015;BME280;1033;52.560;13.374;2024-01-15T05:28:32;98525.59;;;2.05;100.00
67015;BME280;1033;52.560;13.374;2024-01-15T05:31:01;98520.06;;;2.00;100.00
67015;BME280;1033;52.560;13.374;2024-01-15T05:33:31;98516.97;;;2.03;100.00
67015;BME280;1033;52.560;13.374;2024-01-15T05:36:00;98519.03;;;2.01;100.00
67015;BME280;1033;52.560;13.374;2024-01-15T05:38:29;98499.34;;;2.02;100.00
67015;BME280;1033;52.560;13.374;2024-01-15T05:40:58;98512.06;;;2.07;100.00
67015;BME280;1033;52.560;13.374;2024-01-15T05:43:26;98518.44;;;2.12;99.52
67015;BME280;1033;52.560;13.374;2024-01-15T05:45:55;98521.09;;;2.12;99.65
67015;BME280;1033;52.560;13.374;2024-01-15T05:48:23;98503.63;;;2.10;100.00
67015;BME280;1033;52.560;13.374;2024-01-15T05:50:54;98504.88;;;2.21;99.60
67015;BME280;1033;52.560;13.374;2024-01-15T05:53:22;98511.22;;;2.19;99.87
67015;BME280;1033;52.560;13.374;2024-01-15T05:55:51;98509.97;;;2.29;99.66
67015;BME280;1033;52.560;13.374;2024-01-15T05:58:20;98506.69;;;2.13;100.00
67015;BME280;1033;52.560;13.374;2024-01-15T06:00:48;98507.31;;;2.15;100.00
67015;BME280;1033;52.560;13.374;2024-01-15T06:04:04;98519.03;;;2.08;100.00
67015;BME280;1033;52.560;13.374;2024-01-15T06:06:35;98505.91;;;2.06;100.00
67015;BME280;1033;52.560;13.374;2024-01-15T06:09:04;98506.28;;;2.03;100.00
67015;BME280;1033;52.560;13.374;2024-01-15T06:11:33;98507.53;;;2.07;100.00
67015;BME280;1033;52.560;13.374;2024-01-15T06:14:02;98512.84;;;2.14;100.00
67015;BME280;1033;52.560;13.374;2024-01-15T06:16:30;98511.84;;;2.15;100.00
67015;BME280;1033;52.560;13.374;2024-01-15T06:18:59;98524.75;;;2.18;100.00
67015;BME280;1033;52.560;13.374;2024-01-15T06:21:28;98503.84;;;2.22;100.00
67015;BME280;1033;52.560;13.374;2024-01-15T06:23:58;98511.00;;;2.28;100.00
67015;BME280;1033;52.560;13.374;2024-01-15T06:26:33;98497.84;;;2.33;100.00
67015;BME280;1033;52.560;13.374;2024-01-15T06:29:02;98508.53;;;2.33;99.15
67015;BME280;1033;52.560;13.374;2024-01-15T06:31:30;98507.50;;;2.34;98.23
67015;BME280;1033;52.560;13.374;2024-01-15T06:33:59;98519.63;;;2.36;98.57
67015;BME280;1033;52.560;13.374;2024-01-15T06:36:28;98512.03;;;2.33;99.75
67015;BME280;1033;52.560;13.374;2024-01-15T06:38:58;98510.19;;;2.34;100.00
67015;BME280;1033;52.560;13.374;2024-01-15T06:41:26;98504.00;;;2.33;100.00
67015;BME280;1033;52.560;13.374;2024-01-15T06:43:55;98498.09;;;2.31;100.00
67015;BME280;1033;52.560;13.374;2024-01-15T06:46:23;98502.41;;;2.32;100.00
67015;BME280;1033;52.560;13.374;2024-01-15T06:48:52;98503.41;;;2.25;100.00
67015;BME280;1033;52.560;13.374;2024-01-15T06:51:21;98525.19;;;2.22;100.00
67015;BME280;1033;52.560;13.374;2024-01-15T06:53:52;98515.31;;;2.35;100.00
67015;BME280;1033;52.560;13.374;2024-01-15T06:56:22;98502.16;;;2.34;100.00
67015;BME280;1033;52.560;13.374;2024-01-15T06:58:51;98512.84;;;2.34;100.00
67015;BME280;1033;52.560;13.374;2024-01-15T07:01:19;98512.44;;;2.30;100.00
67015;BME280;1033;52.560;13.374;2024-01-15T07:03:48;98532.97;;;2.30;100.00
67015;BME280;1033;52.560;13.374;2024-01-15T07:06:17;98526.38;;;2.39;100.00
67015;BME280;1033;52.560;13.374;2024-01-15T07:08:46;98530.69;;;2.33;99.74
67015;BME280;1033;52.560;13.374;2024-01-15T07:11:15;98537.50;;;2.36;99.89
67015;BME280;1033;52.560;13.374;2024-01-15T07:13:45;98542.00;;;2.35;98.88
67015;BME280;1033;52.560;13.374;2024-01-15T07:16:14;98544.06;;;2.40;98.55
67015;BME280;1033;52.560;13.374;2024-01-15T07:18:56;98553.72;;;2.41;98.28
67015;BME280;1033;52.560;13.374;2024-01-15T07:21:25;98539.72;;;2.39;98.09
67015;BME280;1033;52.560;13.374;2024-01-15T07:23:53;98543.03;;;2.41;97.87
67015;BME280;1033;52.560;13.374;2024-01-15T07:26:22;98550.00;;;2.35;97.52
67015;BME280;1033;52.560;13.374;2024-01-15T07:28:51;98561.47;;;2.42;97.07
67015;BME280;1033;52.560;13.374;2024-01-15T07:31:20;98557.59;;;2.45;96.82
67015;BME280;1033;52.560;13.374;2024-01-15T07:33:49;98552.88;;;2.47;96.39
67015;BME280;1033;52.560;13.374;2024-01-15T07:36:22;98565.38;;;2.53;96.44
67015;BME280;1033;52.560;13.374;2024-01-15T07:38:50;98584.69;;;2.55;96.45
67015;BME280;1033;52.560;13.374;2024-01-15T07:41:18;98571.34;;;2.55;96.79
67015;BME280;1033;52.560;13.374;2024-01-15T07:43:47;98563.72;;;2.52;95.67
67015;BME280;1033;52.560;13.374;2024-01-15T07:46:17;98570.34;;;2.56;96.00
67015;BME280;1033;52.560;13.374;2024-01-15T07:48:45;98565.81;;;2.50;95.81
67015;BME280;1033;52.560;13.374;2024-01-15T07:51:14;98587.56;;;2.60;96.10
67015;BME280;1033;52.560;13.374;2024-01-15T07:53:43;98590.00;;;2.68;96.06
67015;BME280;1033;52.560;13.374;2024-01-15T07:56:11;98593.91;;;2.52;96.53
67015;BME280;1033;52.560;13.374;2024-01-15T07:58:40;98587.16;;;2.50;96.98
67015;BME280;1033;52.560;13.374;2024-01-15T08:01:09;98589.22;;;2.48;97.00
67015;BME280;1033;52.560;13.374;2024-01-15T08:03:40;98581.41;;;2.53;96.52
67015;BME280;1033;52.560;13.374;2024-01-15T08:06:08;98569.91;;;2.52;96.19
67015;BME280;1033;52.560;13.374;2024-01-15T08:08:38;98581.59;;;2.58;97.07
67015;BME280;1033;52.560;13.374;2024-01-15T08:11:06;98579.75;;;2.58;96.49
67015;BME280;1033;52.560;13.374;2024-01-15T08:13:35;98581.41;;;2.59;97.08
67015;BME280;1033;52.560;13.374;2024-01-15T08:16:04;98586.75;;;2.53;96.39
67015;BME280;1033;52.560;13.374;2024-01-15T08:18:33;98597.44;;;2.59;96.73
67015;BME280;1033;52.560;13.374;2024-01-15T08:21:04;98601.72;;;2.67;96.70
67015;BME280;1033;52.560;13.374;2024-01-15T08:23:35;98599.25;;;2.72;95.50
67015;BME280;1033;52.560;13.374;2024-01-15T08:26:04;98597.59;;;2.71;95.74
67015;BME280;1033;52.560;13.374;2024-01-15T08:28:32;98590.41;;;2.72;95.83
67015;BME280;1033;52.560;13.374;2024-01-15T08:31:03;98597.44;;;2.66;95.41
67015;BME280;1033;52.560;13.374;2024-01-15T08:33:32;98592.88;;;2.73;95.43
67015;BME280;1033;52.560;13.374;2024-01-15T08:36:00;98614.03;;;2.68;95.30
67015;BME280;1033;52.560;13.374;2024-01-15T08:38:31;98580.97;;;2.69;94.60
67015;BME280;1033;52.560;13.374;2024-01-15T08:40:59;98595.97;;;2.70;94.78
67015;BME280;1033;52.560;13.374;2024-01-15T08:43:28;98598.66;;;2.70;95.18
67015;BME280;1033;52.560;13.374;2024-01-15T08:45:58;98605.22;;;2.74;94.88
67015;BME280;1033;52.560;13.374;2024-01-15T08:48:27;98598.66;;;2.70;94.69
67015;BME280;1033;52.560;13.374;2024-01-15T08:50:56;98596.19;;;2.75;94.77
67015;BME280;1033;52.560;13.374;2024-01-15T08:53:25;98598.84;;;2.69;95.41
67015;BME280;1033;52.560;13.374;2024-01-15T08:55:55;98592.47;;;2.63;94.96
67015;BME280;1033;52.560;13.374;2024-01-15T08:58:24;98592.91;;;2.53;96.00
67015;BME280;1033;52.560;13.374;2024-01-15T09:00:55;98602.75;;;2.59;95.90
67015;BME280;1033;52.560;13.374;2024-01-15T09:03:24;98610.94;;;2.71;95.56
67015;BME280;1033;52.560;13.374;2024-01-15T09:05:53;98609.94;;;2.72;94.87
67015;BME280;1033;52.560;13.374;2024-01-15T09:08:21;98607.50;;;2.71;95.71
67015;BME280;1033;52.560;13.374;2024-01-15T09:10:50;98614.25;;;2.67;95.38
67015;BME280;1033;52.560;13.374;2024-01-15T09:13:20;98599.88;;;2.68;96.23
67015;BME280;1033;52.560;13.374;2024-01-15T09:15:48;98606.44;;;2.72;96.79
67015;BME280;1033;52.560;13.374;2024-01-15T09:18:17;98616.28;;;2.71;96.68
67015;BME280;1033;52.560;13.374;2024-01-15T09:20:45;98625.75;;;2.67;96.53
67015;BME280;1033;52.560;13.374;2024-01-15T09:23:14;98630.06;;;2.75;96.43
67015;BME280;1033;52.560;13.374;2024-01-15T09:25:43;98624.50;;;2.76;96.44
67015;BME280;1033;52.560;13.374;2024-01-15T09:28:11;98633.16;;;2.85;96.15
67015;BME280;1033;52.560;13.374;2024-01-15T09:30:41;98637.63;;;2.97;95.60
67015;BME280;1033;52.560;13.374;2024-01-15T09:33:09;98632.72;;;2.94;95.03
67015;BME280;1033;52.560;13.374;2024-01-15T09:35:38;98630.66;;;2.96;94.67
67015;BME280;1033;52.560;13.374;2024-01-15T09:38:07;98621.19;;;3.00;94.42
67015;BME280;1033;52.560;13.374;2024-01-15T09:40:43;98622.81;;;3.15;93.23
67015;BME280;1033;52.560;13.374;2024-01-15T09:43:17;98639.63;;;3.28;93.24
67015;BME280;1033;52.560;13.374;2024-01-15T09:45:50;98632.38;;;3.42;91.70
67015;BME280;1033;52.560;13.374;2024-01-15T09:48:19;98647.22;;;3.38;91.25
67015;BME280;1033;52.560;13.374;2024-01-15T09:50:49;98625.56;;;3.53;92.08
67015;BME280;1033;52.560;13.374;2024-01-15T09:53:19;98637.84;;;3.67;90.89
67015;BME280;1033;52.560;13.374;2024-01-15T09:55:50;98630.00;;;3.72;90.05
67015;BME280;1033;52.560;13.374;2024-01-15T09:58:19;98624.31;;;3.55;90.97
67015;BME280;1033;52.560;13.374;2024-01-15T10:00:49;98623.53;;;3.48;91.00
67015;BME280;1033;52.560;13.374;2024-01-15T10:03:18;98617.13;;;3.49;91.23
67015;BME280;1033;52.560;13.374;2024-01-15T10:05:49;98618.38;;;3.53;91.59
67015;BME280;1033;52.560;13.374;2024-01-15T10:08:19;98618.13;;;3.55;90.57
67015;BME280;1033;52.560;13.374;2024-01-15T10:10:48;98622.25;;;3.57;90.87
67015;BME280;1033;52.560;13.374;2024-01-15T10:13:17;98617.72;;;3.58;90.26
67015;BME280;1033;52.560;13.374;2024-01-15T10:15:48;98615.69;;;3.53;90.53
67015;BME280;1033;52.560;13.374;2024-01-15T10:18:16;98611.31;;;3.59;90.62
67015;BME280;1033;52.560;13.374;2024-01-15T10:20:46;98607.41;;;3.61;89.61
67015;BME280;1033;52.560;13.374;2024-01-15T10:23:15;98612.78;;;3.55;90.14
67015;BME280;1033;52.560;13.374;2024-01-15T10:25:43;98609.84;;;3.69;89.64
67015;BME280;1033;52.560;13.374;2024-01-15T10:28:13;98617.63;;;3.77;88.59
67015;BME280;1033;52.560;13.374;2024-01-15T10:30:42;98623.16;;;3.82;89.26
67015;BME280;1033;52.560;13.374;2024-01-15T10:33:12;98607.41;;;3.61;89.04
67015;BME280;1033;52.560;13.374;2024-01-15T10:35:43;98618.78;;;3.50;89.86
67015;BME280;1033;52.560;13.374;2024-01-15T10:38:11;98629.13;;;3.33;90.80
67015;BME280;1033;52.560;13.374;2024-01-15T10:40:40;98618.84;;;3.30;91.16
67015;BME280;1033;52.560;13.374;2024-01-15T10:43:10;98625.00;;;3.31;91.23
67015;BME280;1033;52.560;13.374;2024-01-15T10:45:39;98610.19;;;3.35;91.94
67015;BME280;1033;52.560;13.374;2024-01-15T10:48:07;98618.25;;;3.22;91.84
67015;BME280;1033;52.560;13.374;2024-01-15T10:50:38;98622.53;;;3.36;91.96
67015;BME280;1033;52.560;13.374;2024-01-15T10:53:09;98619.25;;;3.34;91.38
67015;BME280;1033;52.560;13.374;2024-01-15T10:55:38;98614.69;;;3.41;91.86
67015;BME280;1033;52.560;13.374;2024-01-15T10:58:08;98607.94;;;3.32;91.53
67015;BME280;1033;52.560;13.374;2024-01-15T11:00:38;98605.25;;;3.38;91.18
67015;BME280;1033;52.560;13.374;2024-01-15T11:03:07;98608.25;;;3.55;90.55
67015;BME280;1033;52.560;13.374;2024-01-15T11:05:39;98612.88;;;3.35;90.21
67015;BME280;1033;52.560;13.374;2024-01-15T11:08:08;98614.63;;;3.54;89.22
67015;BME280;1033;52.560;13.374;2024-01-15T11:10:44;98609.91;;;3.56;90.11
67015;BME280;1033;52.560;13.374;2024-01-15T11:13:15;98605.44;;;3.43;89.36
67015;BME280;1033;52.560;13.374;2024-01-15T11:16:02;98610.88;;;3.17;89.44
67015;BME280;1033;52.560;13.374;2024-01-15T11:18:34;98607.97;;;3.25;89.71
67015;BME280;1033;52.560;13.374;2024-01-15T11:21:23;98614.50;;;3.42;90.23
67015;BME280;1033;52.560;13.374;2024-01-15T11:23:56;98614.41;;;3.62;89.68
67015;BME280;1033;52.560;13.374;2024-01-15T11:26:31;98614.81;;;3.66;89.87
67015;BME280;1033;52.560;13.374;2024-01-15T11:29:02;98628.34;;;3.77;89.85
67015;BME280;1033;52.560;13.374;2024-01-15T11:31:59;98635.50;;;3.83;89.38
67015;BME280;1033;52.560;13.374;2024-01-15T11:34:55;98625.88;;;3.69;90.57
67015;BME280;1033;52.560;13.374;2024-01-15T11:37:58;98633.72;;;3.71;91.09
67015;BME280;1033;52.560;13.374;2024-01-15T11:40:41;98626.38;;;3.53;92.63
67015;BME280;1033;52.560;13.374;2024-01-15T11:43:12;98632.97;;;3.44;93.48
67015;BME280;1033;52.560;13.374;2024-01-15T11:45:44;98620.16;;;3.15;94.91
67015;BME280;1033;52.560;13.374;2024-01-15T11:48:15;98632.69;;;3.08;96.30
67015;BME280;1033;52.560;13.374;2024-01-15T11:50:46;98642.19;;;2.90;99.41
67015;BME280;1033;52.560;13.374;2024-01-15T11:53:27;98640.34;;;2.58;100.00
67015;BME280;1033;52.560;13.374;2024-01-15T11:56:06;98650.41;;;2.36;100.00
67015;BME280;1033;52.560;13.374;2024-01-15T11:58:40;98647.50;;;2.11;100.00
67015;BME280;1033;52.560;13.374;2024-01-15T12:01:10;98646.25;;;2.14;100.00
67015;BME280;1033;52.560;13.374;2024-01-15T12:03:39;98640.53;;;2.24;100.00
67015;BME280;1033;52.560;13.374;2024-01-15T12:06:09;98648.75;;;2.29;100.00
67015;BME280;1033;52.560;13.374;2024-01-15T12:08:40;98652.03;;;2.31;100.00
67015;BME280;1033;52.560;13.374;2024-01-15T12:11:14;98644.44;;;2.41;100.00
67015;BME280;1033;52.560;13.374;2024-01-15T12:13:45;98639.13;;;2.41;100.00
67015;BME280;1033;52.560;13.374;2024-01-15T12:16:14;98648.75;;;2.48;100.00
67015;BME280;1033;52.560;13.374;2024-01-15T12:18:43;98646.91;;;2.49;100.00
67015;BME280;1033;52.560;13.374;2024-01-15T12:21:12;98638.50;;;2.45;100.00
67015;BME280;1033;52.560;13.374;2024-01-15T12:23:42;98652.66;;;2.46;100.00
67015;BME280;1033;52.560;13.374;2024-01-15T12:26:11;98660.28;;;2.55;100.00
67015;BME280;1033;52.560;13.374;2024-01-15T12:28:40;98650.00;;;2.46;100.00
67015;BME280;1033;52.560;13.374;2024-01-15T12:31:08;98644.25;;;2.36;100.00
67015;BME280;1033;52.560;13.374;2024-01-15T12:33:38;98651.63;;;2.34;100.00
67015;BME280;1033;52.560;13.374;2024-01-15T12:36:08;98647.94;;;2.35;100.00
67015;BME280;1033;52.560;13.374;2024-01-15T12:38:36;98651.81;;;2.26;100.00
67015;BME280;1033;52.560;13.374;2024-01-15T12:41:06;98651.78;;;2.06;100.00
67015;BME280;1033;52.560;13.374;2024-01-15T12:43:35;98653.16;;;1.82;100.00
67015;BME280;1033;52.560;13.374;2024-01-15T12:46:04;98653.34;;;1.74;100.00
67015;BME280;1033;52.560;13.374;2024-01-15T12:48:34;98661.38;;;1.87;100.00
67015;BME280;1033;52.560;13.374;2024-01-15T12:51:06;98667.53;;;1.94;100.00
67015;BME280;1033;52.560;13.374;2024-01-15T12:53:34;98653.81;;;1.97;100.00
67015;BME280;1033;52.560;13.374;2024-01-15T12:56:03;98664.31;;;2.05;100.00
67015;BME280;1033;52.560;13.374;2024-01-15T12:58:33;98679.50;;;2.11;100.00
67015;BME280;1033;52.560;13.374;2024-01-15T13:01:02;98668.66;;;2.13;100.00
67015;BME280;1033;52.560;13.374;2024-01-15T13:03:30;98679.13;;;2.21;100.00
67015;BME280;1033;52.560;13.374;2024-01-15T13:05:59;98682.63;;;2.35;100.00
67015;BME280;1033;52.560;13.374;2024-01-15T13:08:28;98695.16;;;2.41;100.00
67015;BME280;1033;52.560;13.374;2024-01-15T13:10:57;98688.38;;;2.45;100.00
67015;BME280;1033;52.560;13.374;2024-01-15T13:13:25;98696.81;;;2.42;100.00
67015;BME280;1033;52.560;13.374;2024-01-15T13:15:56;98691.47;;;2.35;100.00
67015;BME280;1033;52.560;13.374;2024-01-15T13:18:24;98700.06;;;2.31;100.00